MSC Anya — D5GD2 — position and weather

sailwx.info

Track history (hours):
 
Tides and Currents Weather Stations Pressure Air Temp Water Temp Dewpoint Dewpoint Depression Visibility Wind Speed Wind Dir Waves Ship Positions

MSC Anya

Last reported at 2017-Dec-11 14:58 UTC. Time now 2017-Dec-12 19:33 UTC.
Position N 22°20' E 114°08'.

Length 294 m; draft 10.1 m.

Type: Cargo ship. MMSI: 636016424.

Date/timePositionNaut miles runAvg speedWind from/ knotsBaromVisibWave heightAir tempDewpointWater temp
2017-Dec-11 14:58N 22°20' E 114°08'313 6.6
2017-Dec-09 15:30N 22°26' E 119°46'1019.2
2017-Dec-09 15:00N 22°29' E 119°56'1019.1
2017-Dec-09 14:30N 22°31' E 120°06'917.8
2017-Dec-09 14:00N 22°33' E 120°15'4 7.5
2017-Dec-09 13:30N 22°33' E 120°19'0 0.9
2017-Dec-09 13:00N 22°34' E 120°19'0 0.0
2017-Dec-09 12:30N 22°34' E 120°19'0 0.0
2017-Dec-09 11:59N 22°34' E 120°19'0 0.0
2017-Dec-09 11:29N 22°34' E 120°19'0 0.0
2017-Dec-09 10:59N 22°34' E 120°19'0 0.0
2017-Dec-09 10:29N 22°34' E 120°19'0 0.0
2017-Dec-09 09:56N 22°34' E 120°19'0 0.0
2017-Dec-09 09:29N 22°34' E 120°19'0 0.0
2017-Dec-09 08:56N 22°34' E 120°19'0 0.0
2017-Dec-09 08:29N 22°34' E 120°19'0 0.0
2017-Dec-09 07:59N 22°34' E 120°19'0 0.0
2017-Dec-09 07:29N 22°34' E 120°19'0 0.0
2017-Dec-09 06:59N 22°34' E 120°19'0 0.0
2017-Dec-09 06:26N 22°34' E 120°19'0 0.0
2017-Dec-09 05:59N 22°34' E 120°19'0 0.0
2017-Dec-09 05:29N 22°34' E 120°19'0 0.0
2017-Dec-09 04:59N 22°34' E 120°19'0 0.0
2017-Dec-09 04:29N 22°34' E 120°19'0 0.0
2017-Dec-09 03:59N 22°34' E 120°19'0 0.2
2017-Dec-09 03:30N 22°34' E 120°19'3 5.8
2017-Dec-09 03:00N 22°33' E 120°16'3 6.8
2017-Dec-09 02:30N 22°32' E 120°13'4 8.3
2017-Dec-09 02:01N 22°29' E 120°09'815.4
2017-Dec-09 01:31N 22°24' E 120°03'1017.2
2017-Dec-09 00:57N 22°15' E 120°05'916.6
2017-Dec-09 00:23N 22°06' E 120°08'  
Track history (hours):
 
Tides and Currents Weather Stations Pressure Air Temp Water Temp Dewpoint Dewpoint Depression Visibility Wind Speed Wind Dir Waves Ship Positions

MSC Anya

Last reported at 2017-Dec-11 14:58 UTC. Time now 2017-Dec-12 19:33 UTC.
Position N 22°20' E 114°08'.

Length 294 m; draft 10.1 m.

Type: Cargo ship. MMSI: 636016424.

Date/timePositionNaut miles runAvg speedWind from/ knotsBaromVisibWave heightAir tempDewpointWater temp
2017-Dec-11 14:58N 22°20' E 114°08'313 6.6
2017-Dec-09 15:30N 22°26' E 119°46'1019.2
2017-Dec-09 15:00N 22°29' E 119°56'1019.1
2017-Dec-09 14:30N 22°31' E 120°06'917.8
2017-Dec-09 14:00N 22°33' E 120°15'4 7.5
2017-Dec-09 13:30N 22°33' E 120°19'0 0.9
2017-Dec-09 13:00N 22°34' E 120°19'0 0.0
2017-Dec-09 12:30N 22°34' E 120°19'0 0.0
2017-Dec-09 11:59N 22°34' E 120°19'0 0.0
2017-Dec-09 11:29N 22°34' E 120°19'0 0.0
2017-Dec-09 10:59N 22°34' E 120°19'0 0.0
2017-Dec-09 10:29N 22°34' E 120°19'0 0.0
2017-Dec-09 09:56N 22°34' E 120°19'0 0.0
2017-Dec-09 09:29N 22°34' E 120°19'0 0.0
2017-Dec-09 08:56N 22°34' E 120°19'0 0.0
2017-Dec-09 08:29N 22°34' E 120°19'0 0.0
2017-Dec-09 07:59N 22°34' E 120°19'0 0.0
2017-Dec-09 07:29N 22°34' E 120°19'0 0.0
2017-Dec-09 06:59N 22°34' E 120°19'0 0.0
2017-Dec-09 06:26N 22°34' E 120°19'0 0.0
2017-Dec-09 05:59N 22°34' E 120°19'0 0.0
2017-Dec-09 05:29N 22°34' E 120°19'0 0.0
2017-Dec-09 04:59N 22°34' E 120°19'0 0.0
2017-Dec-09 04:29N 22°34' E 120°19'0 0.0
2017-Dec-09 03:59N 22°34' E 120°19'0 0.2
2017-Dec-09 03:30N 22°34' E 120°19'3 5.8
2017-Dec-09 03:00N 22°33' E 120°16'3 6.8
2017-Dec-09 02:30N 22°32' E 120°13'4 8.3
2017-Dec-09 02:01N 22°29' E 120°09'815.4
2017-Dec-09 01:31N 22°24' E 120°03'1017.2
2017-Dec-09 00:57N 22°15' E 120°05'916.6
2017-Dec-09 00:23N 22°06' E 120°08'  

Dump ship's entire track history